SAS2PC EKCH-EDDM
Flight info
| Callsign | SAS2PC |
|---|---|
| Flight time | 1h 14m |
| Altitude | 37000 |
| Route | SALLO M44 KOGIM DCT MAREM/N0451F340 DCT VESUB T106 TUSTO T108 LANDU LANDU2B |
| Aircraft | A320/M-SDE3FGHIRWY/LB1 |
Departure
| Time | 2026-05-05 20:01 |
|---|---|
| Airport | Copenhagen Kastrup Airport (EKCH) |
Arrival
| Time | 2026-05-05 21:16 |
|---|---|
| Airport | Munich Airport (EDDM) |
| Time | Latitude | Longitude | Altitude | Speed | Heading |
|---|---|---|---|---|---|
| 2026-05-05 19:16 | 55.62670 | 12.64439 | 17 ft | 0 kts | 101° |
| 2026-05-05 19:48 | 55.62670 | 12.64437 | 17 ft | 1 kts | 101° |
| 2026-05-05 19:48 | 55.62675 | 12.64394 | 19 ft | 4 kts | 101° |
| 2026-05-05 19:49 | 55.62670 | 12.64356 | 20 ft | 4 kts | 88° |
| 2026-05-05 19:49 | 55.62669 | 12.64338 | 18 ft | 4 kts | 150° |
| 2026-05-05 19:49 | 55.62644 | 12.64312 | 17 ft | 4 kts | 219° |
| 2026-05-05 19:49 | 55.62623 | 12.64282 | 17 ft | 3 kts | 217° |
| 2026-05-05 19:50 | 55.62620 | 12.64277 | 17 ft | 0 kts | 216° |
| 2026-05-05 19:53 | 55.62609 | 12.64265 | 18 ft | 4 kts | 212° |
| 2026-05-05 19:53 | 55.62574 | 12.64271 | 20 ft | 7 kts | 143° |
| 2026-05-05 19:54 | 55.62541 | 12.64357 | 17 ft | 9 kts | 123° |
| 2026-05-05 19:54 | 55.62501 | 12.64465 | 17 ft | 11 kts | 123° |
| 2026-05-05 19:54 | 55.62462 | 12.64565 | 17 ft | 7 kts | 125° |
| 2026-05-05 19:54 | 55.62427 | 12.64648 | 17 ft | 9 kts | 135° |
| 2026-05-05 19:55 | 55.62360 | 12.64675 | 17 ft | 11 kts | 175° |
| 2026-05-05 19:55 | 55.62300 | 12.64761 | 17 ft | 12 kts | 129° |
| 2026-05-05 19:55 | 55.62219 | 12.64784 | 17 ft | 9 kts | 206° |
| 2026-05-05 19:55 | 55.62213 | 12.64777 | 17 ft | 0 kts | 213° |
| 2026-05-05 19:56 | 55.62202 | 12.64764 | 17 ft | 5 kts | 213° |
| 2026-05-05 19:57 | 55.62157 | 12.64712 | 21 ft | 10 kts | 213° |
| 2026-05-05 19:57 | 55.62107 | 12.64654 | 18 ft | 16 kts | 213° |
| 2026-05-05 19:57 | 55.61943 | 12.64502 | 17 ft | 22 kts | 184° |
| 2026-05-05 19:57 | 55.61783 | 12.64551 | 20 ft | 24 kts | 169° |
| 2026-05-05 19:58 | 55.61618 | 12.64503 | 17 ft | 26 kts | 212° |
| 2026-05-05 19:58 | 55.61465 | 12.64321 | 17 ft | 27 kts | 214° |
| 2026-05-05 19:58 | 55.61299 | 12.64133 | 18 ft | 29 kts | 212° |
| 2026-05-05 19:58 | 55.61126 | 12.63936 | 18 ft | 30 kts | 213° |
| 2026-05-05 19:59 | 55.60948 | 12.63732 | 18 ft | 32 kts | 213° |
| 2026-05-05 19:59 | 55.60758 | 12.63514 | 17 ft | 33 kts | 213° |
| 2026-05-05 19:59 | 55.60574 | 12.63271 | 17 ft | 29 kts | 221° |
| 2026-05-05 19:59 | 55.60419 | 12.63133 | 17 ft | 25 kts | 152° |
| 2026-05-05 20:00 | 55.60339 | 12.63334 | 19 ft | 15 kts | 80° |
| 2026-05-05 20:00 | 55.60364 | 12.63386 | 19 ft | 1 kts | 41° |
| 2026-05-05 20:00 | 55.60473 | 12.63556 | 19 ft | 54 kts | 41° |
| 2026-05-05 20:00 | 55.60922 | 12.64250 | 18 ft | 114 kts | 41° |
| 2026-05-05 20:01 | 55.61641 | 12.65364 | 24 ft | 158 kts | 39° |
| 2026-05-05 20:01 | 55.62476 | 12.66667 | 474 ft | 162 kts | 39° |
| 2026-05-05 20:01 | 55.63314 | 12.67967 | 1121 ft | 162 kts | 40° |
| 2026-05-05 20:01 | 55.64194 | 12.69331 | 1510 ft | 177 kts | 40° |
| 2026-05-05 20:02 | 55.65183 | 12.70858 | 1759 ft | 199 kts | 39° |
| 2026-05-05 20:02 | 55.66293 | 12.72524 | 2076 ft | 221 kts | 39° |
| 2026-05-05 20:02 | 55.67518 | 12.74337 | 2539 ft | 241 kts | 39° |
| 2026-05-05 20:02 | 55.68771 | 12.76373 | 3327 ft | 248 kts | 50° |
| 2026-05-05 20:03 | 55.69594 | 12.79092 | 4161 ft | 256 kts | 72° |
| 2026-05-05 20:03 | 55.69757 | 12.82255 | 5011 ft | 264 kts | 96° |
| 2026-05-05 20:03 | 55.69129 | 12.85335 | 5826 ft | 271 kts | 123° |
| 2026-05-05 20:03 | 55.67747 | 12.87626 | 6627 ft | 277 kts | 152° |
| 2026-05-05 20:04 | 55.65960 | 12.88954 | 7432 ft | 280 kts | 160° |
| 2026-05-05 20:04 | 55.64131 | 12.90187 | 8236 ft | 283 kts | 161° |
| 2026-05-05 20:04 | 55.62278 | 12.91425 | 9034 ft | 287 kts | 161° |
| 2026-05-05 20:04 | 55.60401 | 12.92685 | 9798 ft | 291 kts | 162° |
| 2026-05-05 20:05 | 55.58483 | 12.93979 | 10314 ft | 303 kts | 162° |
| 2026-05-05 20:05 | 55.56440 | 12.95353 | 10480 ft | 326 kts | 162° |
| 2026-05-05 20:05 | 55.54244 | 12.96829 | 10615 ft | 348 kts | 162° |
| 2026-05-05 20:05 | 55.51946 | 12.98385 | 11070 ft | 358 kts | 162° |
| 2026-05-05 20:06 | 55.49611 | 12.99979 | 11677 ft | 362 kts | 162° |
| 2026-05-05 20:06 | 55.47250 | 13.01592 | 12296 ft | 366 kts | 162° |
| 2026-05-05 20:06 | 55.45668 | 13.02669 | 12712 ft | 368 kts | 162° |
| 2026-05-05 20:06 | 55.43267 | 13.04297 | 13353 ft | 372 kts | 163° |
| 2026-05-05 20:07 | 55.40040 | 13.06471 | 14148 ft | 377 kts | 163° |
| 2026-05-05 20:07 | 55.37583 | 13.08120 | 14720 ft | 380 kts | 163° |
| 2026-05-05 20:07 | 55.35107 | 13.09781 | 15275 ft | 383 kts | 163° |
| 2026-05-05 20:07 | 55.32610 | 13.11456 | 15829 ft | 385 kts | 164° |
| 2026-05-05 20:08 | 55.30911 | 13.12593 | 16206 ft | 387 kts | 164° |
| 2026-05-05 20:08 | 55.28380 | 13.14284 | 16768 ft | 390 kts | 164° |
| 2026-05-05 20:08 | 55.25830 | 13.15983 | 17352 ft | 394 kts | 164° |
| 2026-05-05 20:08 | 55.23260 | 13.17695 | 17941 ft | 397 kts | 164° |
| 2026-05-05 20:09 | 55.20707 | 13.19401 | 18481 ft | 400 kts | 165° |
| 2026-05-05 20:09 | 55.18093 | 13.21146 | 19009 ft | 403 kts | 165° |
| 2026-05-05 20:09 | 55.15465 | 13.22895 | 19542 ft | 406 kts | 165° |
| 2026-05-05 20:09 | 55.12811 | 13.24655 | 20064 ft | 409 kts | 165° |
| 2026-05-05 20:10 | 55.10140 | 13.26426 | 20546 ft | 412 kts | 165° |
| 2026-05-05 20:10 | 55.07445 | 13.28211 | 21020 ft | 415 kts | 165° |
| 2026-05-05 20:10 | 55.04737 | 13.29999 | 21452 ft | 418 kts | 165° |
| 2026-05-05 20:10 | 55.02010 | 13.31797 | 21916 ft | 420 kts | 165° |
| 2026-05-05 20:11 | 54.99266 | 13.33606 | 22376 ft | 423 kts | 165° |
| 2026-05-05 20:11 | 54.96507 | 13.35427 | 22826 ft | 425 kts | 165° |
| 2026-05-05 20:11 | 54.93739 | 13.37252 | 23257 ft | 427 kts | 165° |
| 2026-05-05 20:11 | 54.90911 | 13.38767 | 23645 ft | 423 kts | 174° |
| 2026-05-05 20:12 | 54.88060 | 13.39613 | 23993 ft | 421 kts | 178° |
| 2026-05-05 20:12 | 54.85158 | 13.40387 | 24346 ft | 423 kts | 178° |
| 2026-05-05 20:12 | 54.82244 | 13.41166 | 24693 ft | 425 kts | 178° |
| 2026-05-05 20:12 | 54.79317 | 13.41950 | 25044 ft | 426 kts | 178° |
| 2026-05-05 20:13 | 54.76380 | 13.42736 | 25346 ft | 428 kts | 178° |
| 2026-05-05 20:13 | 54.73428 | 13.43525 | 25680 ft | 430 kts | 178° |
| 2026-05-05 20:13 | 54.70466 | 13.44315 | 26015 ft | 432 kts | 178° |
| 2026-05-05 20:13 | 54.67485 | 13.45111 | 26355 ft | 433 kts | 178° |
| 2026-05-05 20:14 | 54.64497 | 13.45910 | 26687 ft | 435 kts | 178° |
| 2026-05-05 20:14 | 54.61496 | 13.46712 | 27010 ft | 437 kts | 178° |
| 2026-05-05 20:14 | 54.58493 | 13.47512 | 27412 ft | 437 kts | 178° |
| 2026-05-05 20:14 | 54.55496 | 13.48313 | 27901 ft | 435 kts | 178° |
| 2026-05-05 20:15 | 54.52551 | 13.49104 | 28394 ft | 433 kts | 178° |
| 2026-05-05 20:15 | 54.49541 | 13.49912 | 28850 ft | 431 kts | 178° |
| 2026-05-05 20:15 | 54.46626 | 13.50669 | 29322 ft | 429 kts | 178° |
| 2026-05-05 20:15 | 54.43675 | 13.51413 | 29807 ft | 427 kts | 178° |
| 2026-05-05 20:16 | 54.40739 | 13.52146 | 30250 ft | 426 kts | 179° |
| 2026-05-05 20:16 | 54.37803 | 13.52879 | 30672 ft | 424 kts | 179° |
| 2026-05-05 20:16 | 54.34885 | 13.53609 | 31110 ft | 423 kts | 179° |
| 2026-05-05 20:16 | 54.31979 | 13.54299 | 31535 ft | 418 kts | 182° |
| 2026-05-05 20:17 | 54.29100 | 13.54485 | 31962 ft | 412 kts | 186° |
| 2026-05-05 20:17 | 54.26236 | 13.54552 | 32393 ft | 411 kts | 187° |
| 2026-05-05 20:17 | 54.23385 | 13.54616 | 32802 ft | 409 kts | 186° |
| 2026-05-05 20:17 | 54.20546 | 13.54682 | 33264 ft | 407 kts | 186° |
| 2026-05-05 20:18 | 54.17723 | 13.54753 | 33715 ft | 405 kts | 186° |
| 2026-05-05 20:18 | 54.14949 | 13.54829 | 34101 ft | 403 kts | 186° |
| 2026-05-05 20:18 | 54.12148 | 13.54905 | 34412 ft | 403 kts | 186° |
| 2026-05-05 20:18 | 54.09342 | 13.54975 | 34687 ft | 403 kts | 186° |
| 2026-05-05 20:19 | 54.06534 | 13.55045 | 34938 ft | 404 kts | 186° |
| 2026-05-05 20:19 | 54.03719 | 13.55111 | 35190 ft | 405 kts | 186° |
| 2026-05-05 20:19 | 54.00899 | 13.55176 | 35428 ft | 406 kts | 186° |
| 2026-05-05 20:19 | 53.98069 | 13.55246 | 35638 ft | 406 kts | 185° |
| 2026-05-05 20:20 | 53.95242 | 13.55323 | 35876 ft | 407 kts | 185° |
| 2026-05-05 20:20 | 53.92407 | 13.55402 | 36103 ft | 408 kts | 185° |
| 2026-05-05 20:20 | 53.89564 | 13.55479 | 36323 ft | 409 kts | 185° |
| 2026-05-05 20:20 | 53.86718 | 13.55550 | 36529 ft | 409 kts | 185° |
| 2026-05-05 20:21 | 53.83866 | 13.55616 | 36748 ft | 410 kts | 185° |
| 2026-05-05 20:21 | 53.81002 | 13.55684 | 36879 ft | 412 kts | 185° |
| 2026-05-05 20:21 | 53.78122 | 13.55747 | 36903 ft | 417 kts | 184° |
| 2026-05-05 20:22 | 53.72278 | 13.55882 | 36881 ft | 427 kts | 184° |
| 2026-05-05 20:22 | 53.66269 | 13.56032 | 36890 ft | 436 kts | 184° |
| 2026-05-05 20:23 | 53.60149 | 13.56193 | 36890 ft | 442 kts | 184° |
| 2026-05-05 20:23 | 53.53978 | 13.56355 | 36887 ft | 444 kts | 184° |
| 2026-05-05 20:24 | 53.47792 | 13.56509 | 36888 ft | 445 kts | 184° |
| 2026-05-05 20:24 | 53.41609 | 13.56658 | 36886 ft | 444 kts | 184° |
| 2026-05-05 20:25 | 53.35457 | 13.56804 | 36893 ft | 445 kts | 184° |
| 2026-05-05 20:25 | 53.29226 | 13.56960 | 36896 ft | 445 kts | 184° |
| 2026-05-05 20:26 | 53.23068 | 13.57106 | 36894 ft | 446 kts | 184° |
| 2026-05-05 20:26 | 53.16871 | 13.57263 | 36884 ft | 445 kts | 184° |
| 2026-05-05 20:27 | 53.10678 | 13.57414 | 36889 ft | 445 kts | 184° |
| 2026-05-05 20:27 | 53.04517 | 13.57563 | 36886 ft | 444 kts | 184° |
| 2026-05-05 20:28 | 52.98324 | 13.57710 | 36888 ft | 444 kts | 184° |
| 2026-05-05 20:28 | 52.92140 | 13.57854 | 36872 ft | 444 kts | 183° |
| 2026-05-05 20:29 | 52.85955 | 13.57999 | 36875 ft | 444 kts | 183° |
| 2026-05-05 20:29 | 52.79822 | 13.58148 | 36878 ft | 443 kts | 183° |
| 2026-05-05 20:30 | 52.73647 | 13.58302 | 36872 ft | 443 kts | 183° |
| 2026-05-05 20:30 | 52.67469 | 13.58452 | 36869 ft | 442 kts | 183° |
| 2026-05-05 20:31 | 52.61364 | 13.58594 | 36866 ft | 442 kts | 183° |
| 2026-05-05 20:31 | 52.55210 | 13.58741 | 36859 ft | 442 kts | 183° |
| 2026-05-05 20:32 | 52.49047 | 13.58882 | 36846 ft | 443 kts | 184° |
| 2026-05-05 20:32 | 52.42877 | 13.59021 | 36864 ft | 443 kts | 183° |
| 2026-05-05 20:33 | 52.36713 | 13.59163 | 36854 ft | 443 kts | 183° |
| 2026-05-05 20:33 | 52.30554 | 13.59312 | 36858 ft | 443 kts | 183° |
| 2026-05-05 20:34 | 52.24396 | 13.59457 | 36866 ft | 443 kts | 183° |
| 2026-05-05 20:34 | 52.18245 | 13.59602 | 36846 ft | 442 kts | 183° |
| 2026-05-05 20:35 | 52.12103 | 13.59740 | 36846 ft | 441 kts | 183° |
| 2026-05-05 20:35 | 52.05961 | 13.59884 | 36842 ft | 441 kts | 183° |
| 2026-05-05 20:36 | 51.99820 | 13.60031 | 36844 ft | 441 kts | 183° |
| 2026-05-05 20:36 | 51.93687 | 13.60166 | 36828 ft | 441 kts | 182° |
| 2026-05-05 20:37 | 51.87552 | 13.60307 | 36831 ft | 441 kts | 182° |
| 2026-05-05 20:37 | 51.81420 | 13.60447 | 36834 ft | 441 kts | 182° |
| 2026-05-05 20:38 | 51.75331 | 13.60592 | 36829 ft | 440 kts | 182° |
| 2026-05-05 20:38 | 51.69198 | 13.60731 | 36824 ft | 440 kts | 182° |
| 2026-05-05 20:39 | 51.63085 | 13.60871 | 36827 ft | 439 kts | 182° |
| 2026-05-05 20:39 | 51.56970 | 13.60999 | 36803 ft | 439 kts | 182° |
| 2026-05-05 20:40 | 51.50855 | 13.61136 | 36812 ft | 439 kts | 182° |
| 2026-05-05 20:40 | 51.44740 | 13.61274 | 36807 ft | 439 kts | 182° |
| 2026-05-05 20:41 | 51.38624 | 13.61408 | 36813 ft | 439 kts | 182° |
| 2026-05-05 20:41 | 51.32516 | 13.61539 | 36825 ft | 439 kts | 182° |
| 2026-05-05 20:42 | 51.26410 | 13.61675 | 36829 ft | 439 kts | 182° |
| 2026-05-05 20:42 | 51.20343 | 13.61820 | 36831 ft | 438 kts | 182° |
| 2026-05-05 20:43 | 51.14240 | 13.61965 | 36835 ft | 438 kts | 182° |
| 2026-05-05 20:43 | 51.08140 | 13.62096 | 36834 ft | 438 kts | 182° |
| 2026-05-05 20:44 | 51.02048 | 13.62223 | 36832 ft | 438 kts | 182° |
| 2026-05-05 20:44 | 50.95951 | 13.62358 | 36821 ft | 437 kts | 182° |
| 2026-05-05 20:45 | 50.86825 | 13.62557 | 36815 ft | 437 kts | 182° |
| 2026-05-05 20:45 | 50.80787 | 13.62694 | 36804 ft | 436 kts | 182° |
| 2026-05-05 20:46 | 50.74719 | 13.62827 | 36802 ft | 436 kts | 182° |
| 2026-05-05 20:46 | 50.68793 | 13.61538 | 36809 ft | 428 kts | 199° |
| 2026-05-05 20:47 | 50.63127 | 13.58681 | 36805 ft | 427 kts | 199° |
| 2026-05-05 20:47 | 50.57460 | 13.55852 | 36809 ft | 427 kts | 199° |
| 2026-05-05 20:48 | 50.51794 | 13.53047 | 36802 ft | 427 kts | 198° |
| 2026-05-05 20:48 | 50.46123 | 13.50235 | 36798 ft | 427 kts | 198° |
| 2026-05-05 20:49 | 50.40448 | 13.47419 | 36800 ft | 428 kts | 198° |
| 2026-05-05 20:49 | 50.34771 | 13.44606 | 36807 ft | 428 kts | 198° |
| 2026-05-05 20:50 | 50.30051 | 13.42283 | 36804 ft | 428 kts | 198° |
| 2026-05-05 20:50 | 50.23425 | 13.39037 | 36783 ft | 421 kts | 198° |
| 2026-05-05 20:51 | 50.20672 | 13.37689 | 36565 ft | 411 kts | 198° |
| 2026-05-05 20:51 | 50.17957 | 13.36358 | 36148 ft | 406 kts | 198° |
| 2026-05-05 20:51 | 50.15274 | 13.35047 | 35731 ft | 402 kts | 198° |
| 2026-05-05 20:51 | 50.12613 | 13.33746 | 35320 ft | 399 kts | 198° |
| 2026-05-05 20:52 | 50.09975 | 13.32457 | 34910 ft | 397 kts | 197° |
| 2026-05-05 20:52 | 50.07377 | 13.31193 | 34522 ft | 397 kts | 197° |
| 2026-05-05 20:52 | 50.04730 | 13.29904 | 34114 ft | 398 kts | 197° |
| 2026-05-05 20:52 | 50.02082 | 13.28615 | 33745 ft | 400 kts | 197° |
| 2026-05-05 20:53 | 49.99423 | 13.27321 | 33304 ft | 401 kts | 197° |
| 2026-05-05 20:53 | 49.96752 | 13.26024 | 32765 ft | 403 kts | 197° |
| 2026-05-05 20:53 | 49.94073 | 13.24727 | 32231 ft | 404 kts | 197° |
| 2026-05-05 20:53 | 49.91378 | 13.23424 | 31719 ft | 406 kts | 197° |
| 2026-05-05 20:54 | 49.88672 | 13.22116 | 31214 ft | 407 kts | 197° |
| 2026-05-05 20:54 | 49.85973 | 13.20813 | 30718 ft | 406 kts | 197° |
| 2026-05-05 20:54 | 49.83278 | 13.19513 | 30229 ft | 406 kts | 196° |
| 2026-05-05 20:54 | 49.80574 | 13.18209 | 29721 ft | 407 kts | 196° |
| 2026-05-05 20:55 | 49.77862 | 13.16904 | 29154 ft | 409 kts | 196° |
| 2026-05-05 20:55 | 49.75172 | 13.15614 | 28603 ft | 410 kts | 196° |
| 2026-05-05 20:55 | 49.72439 | 13.14305 | 28059 ft | 412 kts | 196° |
| 2026-05-05 20:55 | 49.69698 | 13.12991 | 27513 ft | 412 kts | 196° |
| 2026-05-05 20:56 | 49.66965 | 13.11684 | 27004 ft | 409 kts | 196° |
| 2026-05-05 20:56 | 49.64258 | 13.10387 | 26490 ft | 406 kts | 196° |
| 2026-05-05 20:56 | 49.61572 | 13.09101 | 25985 ft | 403 kts | 196° |
| 2026-05-05 20:56 | 49.58904 | 13.07824 | 25488 ft | 400 kts | 196° |
| 2026-05-05 20:57 | 49.56252 | 13.06556 | 25000 ft | 397 kts | 196° |
| 2026-05-05 20:57 | 49.53619 | 13.05299 | 24525 ft | 395 kts | 196° |
| 2026-05-05 20:57 | 49.51001 | 13.04054 | 24054 ft | 392 kts | 196° |
| 2026-05-05 20:57 | 49.48401 | 13.02819 | 23593 ft | 390 kts | 196° |
| 2026-05-05 20:58 | 49.45850 | 13.01612 | 23092 ft | 388 kts | 196° |
| 2026-05-05 20:58 | 49.43279 | 13.00396 | 22543 ft | 385 kts | 197° |
| 2026-05-05 20:58 | 49.40790 | 12.98937 | 22014 ft | 382 kts | 204° |
| 2026-05-05 20:58 | 49.38399 | 12.97181 | 21492 ft | 380 kts | 205° |
| 2026-05-05 20:59 | 49.36020 | 12.95436 | 20979 ft | 378 kts | 205° |
| 2026-05-05 20:59 | 49.33646 | 12.93704 | 20470 ft | 376 kts | 205° |
| 2026-05-05 20:59 | 49.31282 | 12.91986 | 19976 ft | 375 kts | 205° |
| 2026-05-05 20:59 | 49.28934 | 12.90282 | 19487 ft | 373 kts | 205° |
| 2026-05-05 21:00 | 49.26599 | 12.88589 | 19063 ft | 369 kts | 205° |
| 2026-05-05 21:00 | 49.24296 | 12.86915 | 18757 ft | 365 kts | 205° |
| 2026-05-05 21:00 | 49.22044 | 12.85279 | 18459 ft | 362 kts | 205° |
| 2026-05-05 21:00 | 49.19779 | 12.83632 | 18155 ft | 360 kts | 205° |
| 2026-05-05 21:01 | 49.17517 | 12.81994 | 17811 ft | 359 kts | 205° |
| 2026-05-05 21:01 | 49.15266 | 12.80366 | 17466 ft | 357 kts | 205° |
| 2026-05-05 21:01 | 49.13025 | 12.78748 | 17121 ft | 355 kts | 205° |
| 2026-05-05 21:01 | 49.10800 | 12.77143 | 16780 ft | 353 kts | 206° |
| 2026-05-05 21:02 | 49.09333 | 12.76083 | 16557 ft | 352 kts | 206° |
| 2026-05-05 21:02 | 49.07126 | 12.74486 | 16228 ft | 350 kts | 206° |
| 2026-05-05 21:02 | 49.04930 | 12.72902 | 15895 ft | 348 kts | 206° |
| 2026-05-05 21:02 | 49.02744 | 12.71325 | 15568 ft | 347 kts | 206° |
| 2026-05-05 21:03 | 49.00570 | 12.69761 | 15245 ft | 345 kts | 206° |
| 2026-05-05 21:03 | 48.97705 | 12.67704 | 14829 ft | 343 kts | 206° |
| 2026-05-05 21:03 | 48.95552 | 12.66165 | 14511 ft | 341 kts | 206° |
| 2026-05-05 21:03 | 48.94104 | 12.65133 | 14300 ft | 340 kts | 206° |
| 2026-05-05 21:04 | 48.91963 | 12.63606 | 13991 ft | 338 kts | 206° |
| 2026-05-05 21:04 | 48.89896 | 12.62020 | 13683 ft | 336 kts | 213° |
| 2026-05-05 21:04 | 48.87967 | 12.60042 | 13344 ft | 334 kts | 215° |
| 2026-05-05 21:04 | 48.86049 | 12.58054 | 13000 ft | 332 kts | 215° |
| 2026-05-05 21:05 | 48.84147 | 12.56081 | 12662 ft | 331 kts | 215° |
| 2026-05-05 21:05 | 48.82244 | 12.54107 | 12313 ft | 331 kts | 216° |
| 2026-05-05 21:05 | 48.80346 | 12.52137 | 11969 ft | 330 kts | 216° |
| 2026-05-05 21:05 | 48.78450 | 12.50169 | 11653 ft | 329 kts | 216° |
| 2026-05-05 21:06 | 48.76565 | 12.48215 | 11322 ft | 327 kts | 216° |
| 2026-05-05 21:06 | 48.74687 | 12.46271 | 10999 ft | 326 kts | 216° |
| 2026-05-05 21:06 | 48.72812 | 12.44333 | 10672 ft | 325 kts | 216° |
| 2026-05-05 21:06 | 48.70977 | 12.42437 | 10368 ft | 323 kts | 216° |
| 2026-05-05 21:07 | 48.69123 | 12.40523 | 10054 ft | 322 kts | 216° |
| 2026-05-05 21:07 | 48.67276 | 12.38617 | 9742 ft | 320 kts | 216° |
| 2026-05-05 21:07 | 48.65440 | 12.36725 | 9400 ft | 318 kts | 216° |
| 2026-05-05 21:07 | 48.63615 | 12.34849 | 9054 ft | 317 kts | 216° |
| 2026-05-05 21:08 | 48.61792 | 12.32977 | 8717 ft | 316 kts | 216° |
| 2026-05-05 21:08 | 48.60021 | 12.31160 | 8394 ft | 315 kts | 216° |
| 2026-05-05 21:08 | 48.58207 | 12.29300 | 8065 ft | 314 kts | 216° |
| 2026-05-05 21:08 | 48.56403 | 12.27447 | 7734 ft | 313 kts | 216° |
| 2026-05-05 21:09 | 48.54609 | 12.25605 | 7408 ft | 310 kts | 216° |
| 2026-05-05 21:09 | 48.52842 | 12.23795 | 7090 ft | 304 kts | 216° |
| 2026-05-05 21:09 | 48.51107 | 12.22022 | 6868 ft | 297 kts | 216° |
| 2026-05-05 21:09 | 48.49423 | 12.20304 | 6637 ft | 287 kts | 216° |
| 2026-05-05 21:10 | 48.47837 | 12.18693 | 6428 ft | 270 kts | 216° |
| 2026-05-05 21:10 | 48.46317 | 12.17147 | 6214 ft | 256 kts | 217° |
| 2026-05-05 21:10 | 48.44879 | 12.15687 | 5982 ft | 242 kts | 217° |
| 2026-05-05 21:10 | 48.43520 | 12.14302 | 5757 ft | 231 kts | 217° |
| 2026-05-05 21:11 | 48.42189 | 12.12940 | 5527 ft | 230 kts | 217° |
| 2026-05-05 21:11 | 48.40870 | 12.11588 | 5307 ft | 229 kts | 217° |
| 2026-05-05 21:11 | 48.39612 | 12.10122 | 5078 ft | 226 kts | 230° |
| 2026-05-05 21:11 | 48.38786 | 12.08181 | 4854 ft | 217 kts | 250° |
| 2026-05-05 21:12 | 48.38474 | 12.06003 | 4596 ft | 211 kts | 264° |
| 2026-05-05 21:12 | 48.38315 | 12.03823 | 4317 ft | 207 kts | 264° |
| 2026-05-05 21:12 | 48.38159 | 12.01693 | 4041 ft | 203 kts | 264° |
| 2026-05-05 21:12 | 48.38004 | 11.99601 | 3778 ft | 200 kts | 264° |
| 2026-05-05 21:13 | 48.37852 | 11.97568 | 3543 ft | 192 kts | 264° |
| 2026-05-05 21:13 | 48.37705 | 11.95604 | 3269 ft | 185 kts | 264° |
| 2026-05-05 21:13 | 48.37568 | 11.93774 | 3029 ft | 171 kts | 264° |
| 2026-05-05 21:13 | 48.37443 | 11.92120 | 2824 ft | 146 kts | 264° |
| 2026-05-05 21:14 | 48.37335 | 11.90683 | 2639 ft | 133 kts | 264° |
| 2026-05-05 21:14 | 48.37232 | 11.89326 | 2461 ft | 130 kts | 263° |
| 2026-05-05 21:14 | 48.37130 | 11.87965 | 2283 ft | 132 kts | 263° |
| 2026-05-05 21:14 | 48.37025 | 11.86573 | 2098 ft | 136 kts | 264° |
| 2026-05-05 21:15 | 48.36917 | 11.85156 | 1915 ft | 137 kts | 264° |
| 2026-05-05 21:15 | 48.36812 | 11.83740 | 1717 ft | 137 kts | 264° |
| 2026-05-05 21:15 | 48.36706 | 11.82329 | 1538 ft | 135 kts | 263° |
| 2026-05-05 21:15 | 48.36603 | 11.81004 | 1486 ft | 112 kts | 263° |
| 2026-05-05 21:16 | 48.36533 | 11.80102 | 1485 ft | 62 kts | 263° |
| 2026-05-05 21:16 | 48.36494 | 11.79608 | 1477 ft | 43 kts | 263° |
| 2026-05-05 21:16 | 48.36461 | 11.79174 | 1482 ft | 40 kts | 263° |
| 2026-05-05 21:16 | 48.36351 | 11.78813 | 1485 ft | 37 kts | 233° |
| 2026-05-05 21:17 | 48.36199 | 11.78502 | 1480 ft | 37 kts | 233° |
| 2026-05-05 21:17 | 48.36112 | 11.78156 | 1485 ft | 36 kts | 264° |
| 2026-05-05 21:17 | 48.36085 | 11.77792 | 1478 ft | 29 kts | 264° |
| 2026-05-05 21:17 | 48.36036 | 11.77661 | 1484 ft | 13 kts | 184° |
| 2026-05-05 21:18 | 48.35937 | 11.77681 | 1479 ft | 15 kts | 173° |
| 2026-05-05 21:18 | 48.35824 | 11.77699 | 1485 ft | 17 kts | 174° |
| 2026-05-05 21:18 | 48.35704 | 11.77720 | 1474 ft | 18 kts | 174° |
| 2026-05-05 21:18 | 48.35581 | 11.77739 | 1481 ft | 18 kts | 171° |
| 2026-05-05 21:19 | 48.35452 | 11.77766 | 1483 ft | 19 kts | 173° |
| 2026-05-05 21:19 | 48.35317 | 11.77789 | 1483 ft | 20 kts | 174° |
| 2026-05-05 21:19 | 48.35199 | 11.77826 | 1475 ft | 16 kts | 142° |
| 2026-05-05 21:19 | 48.35190 | 11.77980 | 1482 ft | 16 kts | 82° |
| 2026-05-05 21:20 | 48.35196 | 11.78145 | 1473 ft | 15 kts | 111° |
| 2026-05-05 21:20 | 48.35122 | 11.78230 | 1485 ft | 12 kts | 103° |
| 2026-05-05 21:20 | 48.35131 | 11.78345 | 1480 ft | 1 kts | 84° |